Time;durP1;ratioP1;P1;durP2;ratioP2;P2;SDS_P1;SDS_P2;PMS_P1;PMS_P2;Temp;Humidity;BMP_temperature;BMP_pressure;BME280_temperature;BME280_humidity;BME280_pressure;Samples;Min_cycle;Max_cycle;Signal;HPM_P1;HPM_P2
2021/03/25 00:01:14;;;;;;;32.22;13.20;;;;;;;1.05;48.77;94677.59;4991299;28;20193;-69
2021/03/25 00:03:39;;;;;;;28.33;12.90;;;;;;;1.19;48.11;94680.25;4976190;28;20264;-69
2021/03/25 00:06:05;;;;;;;32.43;13.20;;;;;;;1.12;48.01;94671.94;4991185;28;20537;-69
2021/03/25 00:08:31;;;;;;;29.80;14.27;;;;;;;1.09;48.24;94682.28;4992307;28;20208;-69
2021/03/25 00:10:56;;;;;;;41.07;14.00;;;;;;;1.20;48.40;94681.03;4990759;28;20562;-69
2021/03/25 00:13:22;;;;;;;36.97;12.97;;;;;;;1.09;50.61;94675.16;4990705;28;20656;-69
2021/03/25 00:15:47;;;;;;;30.93;14.17;;;;;;;1.06;49.75;94667.84;4992291;28;20553;-69
2021/03/25 00:18:13;;;;;;;31.00;13.97;;;;;;;1.12;50.57;94666.69;4975127;28;20205;-69
2021/03/25 00:20:38;;;;;;;27.27;12.60;;;;;;;0.52;52.84;94670.06;4975065;28;20193;-69
2021/03/25 00:23:04;;;;;;;27.93;13.40;;;;;;;-0.13;54.06;94658.63;4992163;28;20174;-69
2021/03/25 00:25:34;;;;;;;27.77;13.47;;;;;;;0.04;53.23;94669.44;4994173;28;20713;-69
2021/03/25 00:27:59;;;;;;;31.80;13.13;;;;;;;-0.11;54.03;94670.44;4993647;28;20177;-69
2021/03/25 00:30:27;;;;;;;30.47;12.37;;;;;;;0.33;52.46;94671.91;4994425;28;20177;-69
2021/03/25 00:32:53;;;;;;;28.42;13.10;;;;;;;0.36;52.63;94675.81;5011571;28;20273;-67
2021/03/25 00:35:19;;;;;;;25.73;11.90;;;;;;;0.35;52.76;94675.03;4993454;28;20276;-67
2021/03/25 00:37:44;;;;;;;23.80;12.00;;;;;;;0.38;52.61;94656.06;4993906;28;20197;-67
2021/03/25 00:40:10;;;;;;;24.77;12.23;;;;;;;0.49;51.46;94667.19;4977247;28;20185;-67
2021/03/25 00:42:36;;;;;;;25.17;10.88;;;;;;;0.02;52.40;94663.69;4993998;28;20268;-68
2021/03/25 00:45:03;;;;;;;34.60;12.17;;;;;;;0.15;53.64;94664.81;5011708;28;20260;-68
2021/03/25 00:47:29;;;;;;;24.75;11.38;;;;;;;-0.55;53.77;94657.59;5011520;28;20560;-68
2021/03/25 00:49:54;;;;;;;22.23;12.00;;;;;;;-0.32;54.84;94669.91;5011692;28;20177;-68
2021/03/25 00:52:20;;;;;;;23.33;10.57;;;;;;;-0.18;53.56;94669.97;5011585;28;20165;-67
2021/03/25 00:54:45;;;;;;;29.07;10.83;;;;;;;-0.39;53.54;94648.47;5011307;28;20594;-67
2021/03/25 00:57:11;;;;;;;21.13;10.73;;;;;;;0.11;53.48;94667.22;5011519;28;20211;-68
2021/03/25 00:59:36;;;;;;;22.40;11.10;;;;;;;-0.23;53.37;94667.41;5011331;28;20173;-67
2021/03/25 01:02:02;;;;;;;25.10;10.77;;;;;;;-0.76;54.38;94643.91;5011515;28;20192;-67
2021/03/25 01:04:27;;;;;;;27.27;12.23;;;;;;;-1.11;55.86;94656.34;4977271;28;20243;-68
2021/03/25 01:06:53;;;;;;;28.17;11.07;;;;;;;-0.37;54.03;94653.44;5011485;28;20180;-68
2021/03/25 01:09:26;;;;;;;22.67;10.37;;;;;;;0.06;53.69;94648.94;4993664;28;20531;-68
2021/03/25 01:11:52;;;;;;;22.00;10.55;;;;;;;0.17;53.08;94646.91;4994490;28;20214;-68
2021/03/25 01:14:20;;;;;;;19.43;9.97;;;;;;;0.25;52.96;94652.31;4977082;28;20283;-68
2021/03/25 01:16:46;;;;;;;22.88;10.80;;;;;;;0.23;52.70;94651.84;5011246;28;20173;-68
2021/03/25 01:19:14;;;;;;;23.33;11.33;;;;;;;0.31;53.92;94649.63;4977642;28;20238;-67
2021/03/25 01:21:40;;;;;;;24.55;11.77;;;;;;;0.07;53.82;94641.84;5011380;28;20208;-68
2021/03/25 01:24:06;;;;;;;23.07;10.53;;;;;;;0.20;54.50;94649.78;4989761;28;20229;-68
2021/03/25 01:26:32;;;;;;;17.25;9.18;;;;;;;0.36;53.93;94655.59;4990364;28;20178;-68
2021/03/25 01:29:00;;;;;;;21.97;11.77;;;;;;;0.36;54.06;94652.97;4991798;28;20186;-67
2021/03/25 01:31:27;;;;;;;28.42;12.65;;;;;;;0.40;53.40;94650.56;4991526;28;20269;-68
2021/03/25 01:33:52;;;;;;;30.15;12.80;;;;;;;0.47;53.98;94648.34;4990609;28;20212;-68
2021/03/25 01:36:18;;;;;;;20.93;11.20;;;;;;;0.55;53.75;94642.41;4990450;28;20690;-68
2021/03/25 01:38:43;;;;;;;24.63;11.70;;;;;;;0.33;54.65;94647.47;4993315;28;20746;-69
2021/03/25 01:41:09;;;;;;;27.27;12.43;;;;;;;0.31;54.56;94642.53;4995126;28;20177;-68
2021/03/25 01:43:40;;;;;;;24.30;11.53;;;;;;;0.24;54.48;94645.53;4993818;28;20193;-68
2021/03/25 01:46:18;;;;;;;22.48;11.63;;;;;;;0.51;52.71;94636.97;4993751;28;20552;-68
2021/03/25 01:48:49;;;;;;;24.73;12.15;;;;;;;0.66;52.25;94643.03;4978076;28;20174;-68
2021/03/25 01:51:22;;;;;;;24.88;13.40;;;;;;;0.63;51.28;94649.66;4993557;28;20672;-68
2021/03/25 01:53:58;;;;;;;20.63;11.80;;;;;;;0.64;52.04;94643.31;4993864;28;20182;-68
2021/03/25 01:56:54;;;;;;;28.88;13.05;;;;;;;0.43;53.43;94655.22;4978029;28;20185;-68
2021/03/25 01:59:30;;;;;;;29.33;14.02;;;;;;;0.55;53.36;94658.19;4994977;28;20220;-68
2021/03/25 02:01:57;;;;;;;37.97;13.23;;;;;;;0.36;55.03;94647.69;4993757;28;20173;-68
2021/03/25 02:04:33;;;;;;;25.05;13.13;;;;;;;0.44;54.33;94660.19;4977689;28;20201;-68
2021/03/25 02:07:09;;;;;;;32.47;13.48;;;;;;;0.33;55.17;94655.38;4993683;28;20316;-68
2021/03/25 02:09:53;;;;;;;21.17;11.85;;;;;;;0.40;54.57;94658.44;4977889;28;20177;-68
2021/03/25 02:12:49;;;;;;;20.95;11.65;;;;;;;0.28;55.62;94668.56;4994492;28;20185;-68
2021/03/25 02:15:32;;;;;;;33.63;13.07;;;;;;;0.38;54.75;94673.69;4994730;28;20193;-68
2021/03/25 02:18:14;;;;;;;26.88;12.60;;;;;;;0.20;55.64;94667.38;4977316;28;20216;-68
2021/03/25 02:20:52;;;;;;;28.85;12.77;;;;;;;0.38;54.76;94673.69;4978530;28;20177;-67
2021/03/25 02:23:41;;;;;;;26.38;11.70;;;;;;;0.26;54.17;94682.78;4977937;28;20649;-68
2021/03/25 02:26:27;;;;;;;25.42;12.20;;;;;;;-0.23;55.30;94679.75;4994400;28;20182;-68
2021/03/25 02:29:28;;;;;;;27.75;13.13;;;;;;;-0.96;57.50;94678.19;4993967;28;20251;-68
2021/03/25 02:31:59;;;;;;;22.58;13.30;;;;;;;-1.18;58.17;94678.66;4979404;28;20183;-68
2021/03/25 02:34:31;;;;;;;25.33;14.05;;;;;;;-1.18;58.38;94687.31;4977185;28;20617;-68
2021/03/25 02:37:04;;;;;;;24.02;13.80;;;;;;;-1.37;59.01;94676.72;4977338;28;20214;-67
2021/03/25 02:39:56;;;;;;;27.40;12.98;;;;;;;-0.91;57.42;94681.53;4976841;28;20199;-68
2021/03/25 02:42:28;;;;;;;29.90;14.65;;;;;;;-1.04;57.74;94684.81;4979266;28;20174;-68
2021/03/25 02:45:00;;;;;;;31.48;14.35;;;;;;;-0.69;57.49;94696.78;4976857;28;20166;-68
2021/03/25 02:47:25;;;;;;;28.67;13.43;;;;;;;-0.24;56.74;94681.59;4976982;28;20201;-67
2021/03/25 02:50:16;;;;;;;22.57;12.23;;;;;;;-0.36;56.83;94678.59;4975436;28;20681;-67
2021/03/25 02:52:45;;;;;;;27.25;12.18;;;;;;;-0.04;55.42;94685.81;4977233;28;20206;-68
2021/03/25 02:55:12;;;;;;;25.08;12.60;;;;;;;-0.03;55.88;94695.25;4976530;28;20174;-67
2021/03/25 02:57:58;;;;;;;25.30;12.57;;;;;;;-0.03;55.90;94690.00;4976503;28;20201;-68
2021/03/25 03:00:52;;;;;;;21.65;12.45;;;;;;;0.12;54.96;94699.53;4978617;28;20193;-68
2021/03/25 03:03:20;;;;;;;28.48;12.40;;;;;;;0.23;54.72;94699.09;4963013;28;20189;-68
2021/03/25 03:05:46;;;;;;;19.20;9.13;;;;;;;0.18;54.14;94696.56;4976585;28;20170;-68
2021/03/25 03:08:22;;;;;;;19.43;9.33;;;;;;;0.27;53.33;94707.19;4992244;28;20178;-67
2021/03/25 03:11:00;;;;;;;11.35;7.32;;;;;;;0.27;53.94;94704.56;4992421;28;20265;-68
2021/03/25 03:13:27;;;;;;;17.63;9.32;;;;;;;0.33;53.31;94707.88;4992174;28;20283;-68
2021/03/25 03:16:07;;;;;;;15.00;6.88;;;;;;;0.41;54.42;94709.91;4992227;28;20264;-68
2021/03/25 03:18:39;;;;;;;15.30;6.45;;;;;;;0.39;51.61;94714.63;4991936;28;20213;-67
2021/03/25 03:21:12;;;;;;;7.55;4.85;;;;;;;0.32;51.98;94719.47;4992181;28;20660;-67
2021/03/25 03:23:37;;;;;;;10.77;7.55;;;;;;;0.16;53.62;94716.25;4992171;28;20184;-68
2021/03/25 03:26:09;;;;;;;10.33;4.73;;;;;;;0.25;53.45;94725.06;4979245;28;20180;-68
2021/03/25 03:28:55;;;;;;;8.75;5.45;;;;;;;0.40;53.71;94734.59;4979371;28;20196;-67
2021/03/25 03:31:25;;;;;;;8.90;4.70;;;;;;;0.59;53.12;94729.34;4994134;28;20224;-69
2021/03/25 03:33:59;;;;;;;8.50;4.68;;;;;;;0.77;51.46;94729.31;4979149;28;20173;-69
2021/03/25 03:36:24;;;;;;;7.70;4.20;;;;;;;0.60;52.49;94729.03;4979557;28;20189;-69
2021/03/25 03:39:00;;;;;;;7.27;4.50;;;;;;;0.55;52.31;94731.75;4962524;28;20259;-66
2021/03/25 03:41:32;;;;;;;6.20;3.83;;;;;;;0.64;51.98;94732.66;4979245;28;20176;-68
2021/03/25 03:43:59;;;;;;;8.32;4.28;;;;;;;0.72;50.77;94734.63;4995050;28;20542;-68
2021/03/25 03:46:26;;;;;;;6.25;3.42;;;;;;;0.86;50.37;94739.19;4978880;28;20644;-68
2021/03/25 03:49:02;;;;;;;6.85;3.95;;;;;;;0.97;51.39;94733.47;4978615;28;20706;-67
2021/03/25 03:51:35;;;;;;;5.93;4.03;;;;;;;1.02;49.73;94733.41;4994923;28;20176;-67
2021/03/25 03:54:01;;;;;;;9.13;3.38;;;;;;;1.08;51.14;94741.19;4979671;28;20180;-68
2021/03/25 03:56:37;;;;;;;4.67;3.33;;;;;;;1.09;50.38;94740.91;4978727;28;20197;-68
2021/03/25 03:59:10;;;;;;;6.40;3.72;;;;;;;1.16;50.33;94727.38;4996005;28;20205;-68
2021/03/25 04:01:47;;;;;;;3.83;3.10;;;;;;;1.14;50.23;94747.94;4977454;28;20239;-67
2021/03/25 04:04:24;;;;;;;6.25;3.70;;;;;;;1.23;49.86;94746.97;4978746;28;20180;-67
2021/03/25 04:06:57;;;;;;;6.38;3.55;;;;;;;1.23;50.35;94744.34;4994471;28;20173;-67
2021/03/25 04:09:37;;;;;;;5.20;3.78;;;;;;;1.22;50.22;94750.66;4978606;28;20173;-67
2021/03/25 04:12:08;;;;;;;4.63;3.33;;;;;;;0.98;49.18;94748.19;4979149;28;20180;-67
2021/03/25 04:14:37;;;;;;;4.18;3.33;;;;;;;0.95;50.12;94750.59;4979036;28;20185;-67
2021/03/25 04:17:05;;;;;;;5.43;3.60;;;;;;;1.01;50.69;94755.50;4978306;28;20672;-67
2021/03/25 04:19:36;;;;;;;5.63;3.75;;;;;;;1.10;50.65;94762.72;4994558;28;20212;-67
2021/03/25 04:22:03;;;;;;;6.72;3.67;;;;;;;1.28;50.10;94767.94;5011801;28;20639;-68
2021/03/25 04:24:31;;;;;;;4.60;3.35;;;;;;;1.42;49.29;94764.56;4990856;28;20608;-68
2021/03/25 04:27:00;;;;;;;5.15;3.15;;;;;;;1.31;49.22;94766.59;4990927;28;20645;-67
2021/03/25 04:29:32;;;;;;;7.70;4.07;;;;;;;1.27;50.92;94771.63;4991113;28;20679;-67
2021/03/25 04:31:57;;;;;;;19.33;8.27;;;;;;;1.28;50.58;94767.16;4990866;28;20668;-68
2021/03/25 04:34:23;;;;;;;24.20;9.70;;;;;;;1.26;50.85;94774.56;4991131;28;20165;-67
2021/03/25 04:36:49;;;;;;;21.30;10.87;;;;;;;1.24;50.65;94772.22;4991996;28;20219;-67
2021/03/25 04:39:16;;;;;;;24.50;11.10;;;;;;;1.12;51.03;94774.50;4974648;28;20186;-68
2021/03/25 04:41:42;;;;;;;29.90;12.15;;;;;;;0.97;50.85;94785.28;4974829;28;20174;-68
2021/03/25 04:44:16;;;;;;;27.20;12.02;;;;;;;0.92;51.94;94785.34;4974639;28;20209;-68
2021/03/25 04:46:52;;;;;;;27.45;13.13;;;;;;;0.65;53.20;94799.91;4975730;28;20263;-68
2021/03/25 04:49:38;;;;;;;38.10;13.73;;;;;;;0.65;51.30;94799.13;4975368;28;20173;-68
2021/03/25 04:52:08;;;;;;;29.63;13.82;;;;;;;0.49;51.65;94788.06;4990741;28;20586;-68
2021/03/25 04:54:38;;;;;;;32.72;13.85;;;;;;;0.60;51.76;94804.47;4975289;28;20268;-68
2021/03/25 04:57:16;;;;;;;30.02;12.90;;;;;;;0.66;51.59;94801.47;4990579;28;20202;-68
2021/03/25 04:59:41;;;;;;;34.80;12.93;;;;;;;0.62;52.08;94803.13;4992105;28;20259;-68
2021/03/25 05:02:07;;;;;;;29.23;12.37;;;;;;;0.45;52.58;94810.69;4974378;28;20912;-68
2021/03/25 05:04:39;;;;;;;30.43;12.93;;;;;;;0.63;51.26;94817.03;4974463;28;20281;-68
2021/03/25 05:07:05;;;;;;;29.13;12.82;;;;;;;0.61;51.75;94809.44;4974626;28;20178;-68
2021/03/25 05:09:30;;;;;;;26.80;13.40;;;;;;;0.59;52.02;94811.56;4990735;28;20181;-68
2021/03/25 05:12:05;;;;;;;26.87;13.30;;;;;;;0.50;52.19;94811.41;4990559;28;20178;-68
2021/03/25 05:14:30;;;;;;;29.65;13.35;;;;;;;0.55;53.32;94821.06;4993913;28;20169;-68
2021/03/25 05:17:29;;;;;;;23.23;12.70;;;;;;;0.33;52.55;94829.50;4994179;28;20184;-67
2021/03/25 05:20:03;;;;;;;25.77;11.88;;;;;;;0.41;53.29;94830.72;4979795;28;20205;-68
2021/03/25 05:22:53;;;;;;;33.45;14.23;;;;;;;0.43;52.40;94828.59;4994253;28;20240;-68
2021/03/25 05:25:48;;;;;;;25.17;12.07;;;;;;;0.34;53.48;94828.44;4978614;28;20706;-68
2021/03/25 05:28:16;;;;;;;27.92;13.65;;;;;;;0.02;55.90;94833.53;4994160;28;20209;-68
2021/03/25 05:30:43;;;;;;;26.17;11.07;;;;;;;0.14;54.15;94823.44;4995128;28;20173;-67
2021/03/25 05:33:11;;;;;;;26.13;11.70;;;;;;;0.26;54.26;94827.22;4978030;28;20186;-67
2021/03/25 05:35:42;;;;;;;26.25;10.85;;;;;;;-0.05;55.67;94818.91;4978029;28;20188;-67
2021/03/25 05:38:08;;;;;;;17.83;9.88;;;;;;;0.14;53.99;94820.81;4977975;28;20206;-68
2021/03/25 05:40:38;;;;;;;21.90;9.63;;;;;;;0.14;55.06;94821.56;4993873;28;20198;-68
2021/03/25 05:43:44;;;;;;;18.48;9.40;;;;;;;0.35;54.26;94819.50;4994065;28;20649;-68
2021/03/25 05:46:27;;;;;;;20.92;10.23;;;;;;;0.51;54.66;94833.22;4994121;28;20288;-67
2021/03/25 05:49:08;;;;;;;14.90;8.48;;;;;;;0.50;55.07;94831.66;4994975;28;20177;-68
2021/03/25 05:51:59;;;;;;;21.73;9.82;;;;;;;0.81;53.89;94837.28;4995098;28;20610;-67
2021/03/25 05:54:36;;;;;;;18.10;8.68;;;;;;;0.83;53.00;94842.25;4973302;28;20228;-68
2021/03/25 05:57:04;;;;;;;20.08;8.55;;;;;;;0.72;54.17;94841.59;4972952;28;20186;-68
2021/03/25 05:59:34;;;;;;;22.77;10.07;;;;;;;0.70;54.60;94839.28;4973422;28;20692;-69
2021/03/25 06:02:13;;;;;;;18.60;9.52;;;;;;;0.93;52.99;94847.38;4925305;28;20190;-68
2021/03/25 06:04:39;;;;;;;23.42;9.32;;;;;;;0.79;53.37;94837.59;4957825;28;20239;-69
2021/03/25 06:07:16;;;;;;;11.33;7.47;;;;;;;0.87;53.41;94843.25;4957020;28;20194;-69
2021/03/25 06:10:06;;;;;;;15.27;8.02;;;;;;;1.00;54.10;94850.41;4973095;28;20182;-68
2021/03/25 06:12:40;;;;;;;23.55;9.07;;;;;;;1.11;54.44;94838.69;4972950;28;20206;-68
2021/03/25 06:15:52;;;;;;;20.50;9.60;;;;;;;1.22;53.04;94850.63;4973257;28;20182;-68
2021/03/25 06:18:24;;;;;;;18.80;7.95;;;;;;;1.33;53.21;94852.03;4896679;29;20229;-69
2021/03/25 06:21:07;;;;;;;20.55;8.45;;;;;;;1.33;53.66;94849.41;4896492;29;20300;-69
2021/03/25 06:23:37;;;;;;;18.23;9.32;;;;;;;1.56;52.24;94847.72;4896292;29;20193;-69
2021/03/25 06:26:19;;;;;;;30.08;9.48;;;;;;;1.63;52.43;94846.56;4896299;29;20216;-69
2021/03/25 06:28:47;;;;;;;22.58;10.65;;;;;;;1.76;52.49;94851.88;4896629;29;20189;-69
2021/03/25 06:31:26;;;;;;;24.58;11.25;;;;;;;1.94;52.00;94860.75;4887384;29;20192;-69
2021/03/25 06:34:00;;;;;;;21.23;10.50;;;;;;;1.97;51.80;94851.53;4893158;29;20196;-69
2021/03/25 06:36:39;;;;;;;18.67;11.00;;;;;;;1.99;50.44;94854.63;4880606;29;20192;-68
2021/03/25 06:39:04;;;;;;;21.50;10.73;;;;;;;2.17;50.70;94856.41;4895857;29;20228;-69
2021/03/25 06:41:59;;;;;;;22.17;12.03;;;;;;;2.11;51.05;94860.97;4896340;29;20276;-68
2021/03/25 06:44:44;;;;;;;16.63;8.82;;;;;;;2.19;52.51;94864.81;4895914;29;20185;-68
2021/03/25 06:47:36;;;;;;;10.63;6.70;;;;;;;2.61;49.62;94870.84;4880538;29;20207;-68
2021/03/25 06:50:03;;;;;;;10.80;6.82;;;;;;;2.74;50.31;94877.16;4888573;29;20672;-68
2021/03/25 06:52:34;;;;;;;14.30;6.00;;;;;;;2.95;48.86;94870.41;4942021;28;20187;-68
2021/03/25 06:55:18;;;;;;;10.88;5.75;;;;;;;3.20;47.79;94884.91;4959554;28;20174;-69
2021/03/25 06:58:05;;;;;;;10.93;5.60;;;;;;;3.19;46.17;94872.75;4978259;28;20201;-69
2021/03/25 07:00:34;;;;;;;11.32;4.95;;;;;;;2.98;48.12;94871.69;4969736;28;20189;-69
2021/03/25 07:03:02;;;;;;;11.88;5.15;;;;;;;3.09;47.54;94875.66;4939784;28;20658;-69
2021/03/25 07:05:29;;;;;;;6.78;4.90;;;;;;;3.19;46.93;94876.19;4940976;28;20166;-69
2021/03/25 07:08:14;;;;;;;7.18;4.40;;;;;;;3.07;47.58;94869.88;4951032;28;20189;-69
2021/03/25 07:10:43;;;;;;;10.18;4.90;;;;;;;3.12;47.81;94872.41;4975734;28;20221;-69
2021/03/25 07:13:14;;;;;;;10.60;5.20;;;;;;;3.22;47.41;94876.69;4973834;28;20191;-68
2021/03/25 07:15:40;;;;;;;7.55;5.13;;;;;;;3.45;48.16;94870.34;4957215;28;20166;-68
2021/03/25 07:18:13;;;;;;;13.13;6.00;;;;;;;3.17;49.68;94875.72;4955738;28;20289;-68
2021/03/25 07:20:39;;;;;;;13.15;5.75;;;;;;;3.53;46.86;94866.97;4941663;28;20175;-68
2021/03/25 07:23:09;;;;;;;9.13;4.63;;;;;;;3.46;47.69;94871.91;4955769;28;20205;-68
2021/03/25 07:25:41;;;;;;;8.45;4.68;;;;;;;3.58;46.18;94871.34;4989723;28;20221;-68
2021/03/25 07:28:18;;;;;;;16.25;6.93;;;;;;;3.72;46.87;94875.50;4993058;28;20188;-69
2021/03/25 07:30:58;;;;;;;9.38;4.95;;;;;;;4.52;65.28;94870.28;4959658;28;20186;-67
2021/03/25 07:33:30;;;;;;;8.68;4.53;;;;;;;6.35;54.99;94879.78;4943998;28;20193;-71
2021/03/25 07:36:14;;;;;;;11.63;5.20;;;;;;;6.46;50.14;94877.56;4959894;28;20178;-70
2021/03/25 07:38:41;;;;;;;7.83;4.17;;;;;;;6.88;45.59;94881.84;4959533;28;20475;-69
2021/03/25 07:41:24;;;;;;;7.47;4.67;;;;;;;6.95;44.67;94881.34;4959385;28;20431;-70
2021/03/25 07:43:58;;;;;;;9.67;5.97;;;;;;;7.21;42.97;94869.78;4959528;28;20451;-70
2021/03/25 07:46:42;;;;;;;9.30;5.37;;;;;;;7.20;41.92;94884.19;4976480;28;20425;-69
2021/03/25 07:49:11;;;;;;;7.87;4.80;;;;;;;7.48;42.05;94882.56;4992312;28;20456;-69
2021/03/25 07:52:06;;;;;;;8.43;4.97;;;;;;;7.41;39.75;94877.78;4992843;28;20417;-68
2021/03/25 07:54:36;;;;;;;14.77;5.63;;;;;;;7.48;38.73;94879.91;4897510;29;20943;-69
2021/03/25 07:57:09;;;;;;;12.77;6.03;;;;;;;8.02;40.84;94881.75;4898126;29;20432;-67
2021/03/25 07:59:38;;;;;;;15.77;6.53;;;;;;;7.38;42.57;94877.63;4897769;29;20479;-67
2021/03/25 08:02:30;;;;;;;9.63;5.53;;;;;;;6.36;38.84;94871.50;4898049;29;20787;-69
2021/03/25 08:04:56;;;;;;;9.80;5.27;;;;;;;5.84;38.16;94876.16;4913184;29;20440;-69
2021/03/25 08:07:22;;;;;;;10.43;5.63;;;;;;;5.51;40.46;94874.00;4897564;29;20440;-69
2021/03/25 08:09:54;;;;;;;9.73;5.20;;;;;;;5.39;39.83;94875.69;4882238;29;20428;-69
2021/03/25 08:12:34;;;;;;;6.53;3.70;;;;;;;4.85;39.44;94875.19;4897954;29;20200;-69
2021/03/25 08:15:26;;;;;;;8.80;3.55;;;;;;;4.30;39.35;94865.84;4913616;29;20428;-69
2021/03/25 08:18:27;;;;;;;7.90;5.20;;;;;;;4.24;44.34;94865.19;4875721;29;20252;-69
2021/03/25 08:21:14;;;;;;;10.48;5.20;;;;;;;4.52;41.68;94867.63;4866263;29;20199;-69
2021/03/25 08:23:42;;;;;;;6.28;3.72;;;;;;;4.91;38.66;94863.38;4875870;29;20571;-70
2021/03/25 08:26:19;;;;;;;4.90;3.30;;;;;;;5.14;38.68;94864.00;4859929;29;20221;-70
2021/03/25 08:28:57;;;;;;;6.05;3.60;;;;;;;5.29;39.15;94858.25;4861325;29;20913;-70
2021/03/25 08:31:32;;;;;;;5.18;3.58;;;;;;;4.93;38.57;94864.59;4878743;29;20188;-69
2021/03/25 08:34:41;;;;;;;7.73;3.93;;;;;;;5.37;39.62;94862.00;4897607;29;20574;-69
2021/03/25 08:37:11;;;;;;;4.07;3.10;;;;;;;5.27;37.33;94855.13;4887044;29;20439;-72
2021/03/25 08:40:04;;;;;;;7.73;4.00;;;;;;;5.38;38.22;94858.25;4897454;29;20991;-70
2021/03/25 08:42:33;;;;;;;4.97;3.67;;;;;;;5.21;39.73;94854.50;4879232;29;20445;-70
2021/03/25 08:45:09;;;;;;;4.57;3.33;;;;;;;5.61;39.22;94856.22;4897043;29;20908;-70
2021/03/25 08:47:43;;;;;;;5.87;4.00;;;;;;;6.02;37.21;94851.19;4913313;29;20467;-69
2021/03/25 08:50:33;;;;;;;6.17;3.80;;;;;;;6.00;35.94;94839.31;4917199;29;20438;-69
2021/03/25 08:53:01;;;;;;;4.77;3.20;;;;;;;5.73;36.04;94843.13;4916967;29;20416;-70
2021/03/25 08:55:34;;;;;;;5.17;3.63;;;;;;;5.52;34.60;94840.34;4949636;28;20937;-69
2021/03/25 08:58:12;;;;;;;5.43;3.00;;;;;;;5.39;35.64;94838.63;4943761;28;20473;-68
2021/03/25 09:00:40;;;;;;;4.23;3.70;;;;;;;5.38;36.87;94843.13;4959882;28;20417;-70
2021/03/25 09:03:24;;;;;;;4.63;3.50;;;;;;;5.24;36.48;94845.19;4959261;28;20426;-70
2021/03/25 09:06:17;;;;;;;5.13;3.93;;;;;;;5.18;36.43;94849.84;4959153;28;20623;-69
2021/03/25 09:08:43;;;;;;;3.65;3.08;;;;;;;5.28;38.39;94844.25;4956834;28;20480;-70
2021/03/25 09:11:16;;;;;;;48.57;7.00;;;;;;;6.29;59.38;94852.66;4942970;28;20167;-72
2021/03/25 09:13:44;;;;;;;4.53;3.00;;;;;;;8.01;47.17;94858.94;4943301;28;20257;-71
2021/03/25 09:16:13;;;;;;;5.97;3.20;;;;;;;8.05;40.48;94857.19;4958700;28;20855;-70
2021/03/25 09:18:44;;;;;;;4.33;3.40;;;;;;;8.68;41.04;94853.19;4943325;28;20987;-70
2021/03/25 09:21:16;;;;;;;9.97;4.57;;;;;;;8.71;38.22;94855.19;4958828;28;20429;-70
2021/03/25 09:23:46;;;;;;;10.90;4.30;;;;;;;9.75;35.58;94856.28;4960385;28;20935;-69
2021/03/25 09:26:11;;;;;;;5.67;3.87;;;;;;;9.83;35.20;94861.81;4962693;28;20460;-69
2021/03/25 09:32:02;;;;;;;5.83;3.80;;;;;;;7.91;30.53;94857.47;4995460;28;20268;-69
2021/03/25 09:34:48;;;;;;;5.63;3.87;;;;;;;7.14;31.35;94855.16;4935357;29;20416;-68
2021/03/25 09:37:13;;;;;;;7.53;4.03;;;;;;;6.97;32.22;94857.94;4919692;29;21042;-67
2021/03/25 09:39:38;;;;;;;6.90;4.27;;;;;;;6.82;34.35;94855.84;4934944;29;20514;-69
2021/03/25 09:42:16;;;;;;;6.43;3.93;;;;;;;6.61;36.47;94861.84;4919620;29;20304;-68
2021/03/25 09:44:41;;;;;;;7.50;4.07;;;;;;;6.47;34.24;94853.34;4934756;29;20314;-67
2021/03/25 09:47:20;;;;;;;7.00;4.00;;;;;;;6.41;34.34;94854.63;4919324;29;20887;-68
2021/03/25 09:49:47;;;;;;;10.33;4.27;;;;;;;6.37;33.58;94845.75;4919074;29;20239;-68
2021/03/25 09:52:20;;;;;;;7.27;4.20;;;;;;;6.12;35.79;94854.56;4919095;29;20466;-67
2021/03/25 09:54:48;;;;;;;7.23;4.13;;;;;;;6.03;35.49;94852.72;4918594;29;20464;-70
2021/03/25 09:57:28;;;;;;;7.43;4.20;;;;;;;6.35;36.10;94853.25;4934646;29;20427;-68
2021/03/25 10:00:21;;;;;;;6.80;4.77;;;;;;;6.48;35.79;94857.56;4918302;29;20909;-70
2021/03/25 10:02:51;;;;;;;10.10;4.70;;;;;;;6.56;36.56;94856.72;4934825;29;20507;-67
2021/03/25 10:05:20;;;;;;;8.80;4.33;;;;;;;6.36;35.33;94860.13;4934732;29;20506;-66
2021/03/25 10:07:49;;;;;;;8.77;4.83;;;;;;;6.27;36.83;94864.66;4948108;28;20503;-68
2021/03/25 10:10:23;;;;;;;9.23;4.87;;;;;;;6.13;35.75;94862.22;4961091;28;20421;-67
2021/03/25 10:13:00;;;;;;;9.23;4.97;;;;;;;6.05;37.68;94858.50;4994641;28;20519;-68
2021/03/25 10:15:41;;;;;;;7.23;4.07;;;;;;;6.02;35.80;94869.72;4994274;28;20748;-73
2021/03/25 10:18:15;;;;;;;8.90;5.10;;;;;;;6.13;37.95;94858.78;4994292;28;20467;-71
2021/03/25 10:21:15;;;;;;;8.27;4.77;;;;;;;5.95;35.70;94861.50;4994539;28;20415;-68
2021/03/25 10:23:49;;;;;;;8.80;4.87;;;;;;;6.36;36.10;94868.06;4962636;28;20405;-66
2021/03/25 10:26:36;;;;;;;6.97;3.90;;;;;;;6.41;36.27;94859.16;4994467;28;20421;-72
2021/03/25 10:29:11;;;;;;;6.53;4.07;;;;;;;6.61;36.88;94861.84;4976886;28;20519;-67
2021/03/25 10:31:43;;;;;;;5.40;3.47;;;;;;;6.42;35.71;94864.16;4994179;28;20431;-67
2021/03/25 10:34:21;;;;;;;4.33;3.23;;;;;;;6.42;36.51;94866.78;4976866;28;20424;-70
2021/03/25 10:37:22;;;;;;;4.00;3.10;;;;;;;6.07;36.04;94861.63;4944174;28;20440;-66
2021/03/25 10:39:47;;;;;;;4.20;3.17;;;;;;;6.13;35.81;94864.88;4947259;28;20436;-70
2021/03/25 10:42:28;;;;;;;8.53;3.63;;;;;;;6.04;35.69;94856.16;4960452;28;20805;-67
2021/03/25 10:44:56;;;;;;;6.63;3.60;;;;;;;6.04;36.77;94866.75;4993912;28;20201;-66
2021/03/25 10:47:25;;;;;;;4.30;3.23;;;;;;;5.86;37.03;94863.34;4994192;28;20429;-69
2021/03/25 10:49:55;;;;;;;5.03;3.33;;;;;;;5.83;40.07;94859.44;4977050;28;20413;-68
2021/03/25 10:52:30;;;;;;;4.97;3.10;;;;;;;5.99;38.87;94865.06;4960786;28;20935;-65
2021/03/25 10:54:56;;;;;;;2.93;2.43;;;;;;;6.12;38.92;94862.53;4993496;28;20417;-68
2021/03/25 10:57:23;;;;;;;7.33;2.80;;;;;;;6.28;36.76;94869.63;4976280;28;20488;-68
2021/03/25 10:59:52;;;;;;;4.67;2.60;;;;;;;6.23;39.67;94864.53;4975642;28;20626;-67
2021/03/25 11:02:21;;;;;;;4.97;3.10;;;;;;;6.48;36.56;94862.09;4993590;28;20432;-66
2021/03/25 11:04:47;;;;;;;4.30;3.33;;;;;;;6.33;37.34;94861.50;4993789;28;20425;-68
2021/03/25 11:07:16;;;;;;;6.30;3.37;;;;;;;6.35;38.16;94856.69;4987690;28;20428;-67
2021/03/25 11:10:00;;;;;;;5.60;3.60;;;;;;;6.71;38.63;94850.13;4976323;28;20432;-67
2021/03/25 11:12:31;;;;;;;4.90;2.93;;;;;;;6.70;33.82;94855.75;4975701;28;20421;-67
2021/03/25 11:15:00;;;;;;;4.40;2.87;;;;;;;6.30;34.62;94853.44;4960426;28;20472;-68
2021/03/25 11:17:52;;;;;;;5.10;3.43;;;;;;;6.19;35.71;94849.56;4976579;28;20556;-68
2021/03/25 11:20:20;;;;;;;4.47;3.20;;;;;;;6.08;33.41;94846.50;4990514;28;20424;-68
2021/03/25 11:22:45;;;;;;;5.40;3.50;;;;;;;6.26;35.76;94853.28;4975840;28;20425;-68
2021/03/25 11:25:16;;;;;;;3.27;2.90;;;;;;;6.56;35.72;94846.13;4992854;28;20523;-66
2021/03/25 11:27:41;;;;;;;4.00;3.00;;;;;;;6.59;34.46;94850.81;4975759;28;20181;-68
2021/03/25 11:30:22;;;;;;;4.50;2.80;;;;;;;7.03;32.84;94847.91;4975621;28;20436;-66
2021/03/25 11:32:47;;;;;;;3.47;2.70;;;;;;;7.25;32.46;94849.47;4977827;28;20173;-67
2021/03/25 11:35:23;;;;;;;5.57;2.80;;;;;;;7.16;33.24;94836.25;4975491;28;20428;-67
2021/03/25 11:37:49;;;;;;;4.50;3.27;;;;;;;7.35;34.14;94839.22;4993119;28;20209;-67
2021/03/25 11:40:18;;;;;;;4.67;3.20;;;;;;;7.42;31.46;94850.09;4992828;28;20479;-67
2021/03/25 11:42:44;;;;;;;8.30;3.33;;;;;;;7.33;31.77;94840.66;4992807;28;20177;-67
2021/03/25 11:45:59;;;;;;;5.00;3.30;;;;;;;7.08;32.21;94848.50;4992300;28;20445;-67
2021/03/25 11:48:29;;;;;;;4.70;2.80;;;;;;;6.66;34.29;94834.38;4895054;29;20433;-67
2021/03/25 11:50:56;;;;;;;4.37;3.17;;;;;;;6.71;32.80;94838.72;4880007;29;20822;-65
2021/03/25 11:53:49;;;;;;;7.07;3.70;;;;;;;6.86;34.07;94843.47;4879574;29;20433;-67
2021/03/25 11:56:29;;;;;;;4.73;2.90;;;;;;;6.84;34.90;94840.34;4893228;29;20452;-67
2021/03/25 11:59:00;;;;;;;4.87;3.27;;;;;;;6.83;32.70;94842.22;4894294;29;20497;-68
2021/03/25 12:01:27;;;;;;;8.43;3.87;;;;;;;6.52;35.10;94841.78;4863478;29;20832;-71
2021/03/25 12:03:59;;;;;;;8.30;4.63;;;;;;;6.70;36.11;94840.59;4863370;29;20492;-68
2021/03/25 12:06:28;;;;;;;4.27;3.40;;;;;;;7.00;36.37;94843.22;4878770;29;20472;-67
2021/03/25 12:09:23;;;;;;;4.27;3.07;;;;;;;7.26;33.26;94845.72;4893927;29;20432;-67